Grand Rapids, Michigan
Current Conditions -  °F | °C
As of 3:53 PM on Monday 22 Dec 2014 (Local Time) from KGRR Reporting Station
Light Rain Light Rain  
Wind Chill: 26°   Ceiling: 3500
Heat Index: 35°   Visibility: 4mi
Dew Point: 30°   Wind: 15mph
Humidity: 82%   Direction: 90°E
Pressure: 29.86"   Gusts: NA
Location:  42.97°N, 85.67°W
Report Text: KGRR 222053Z 09013KT 4SM -RA HZ OVC035 02/M01 A2986 RMK AO2 RAB24SNE31 SLP122 P0001 60001 T00171011 56021
Loading
Personal Weather Stations






























Interactive Weather Map New forecast layout! Learn more

10-Day Weather Forecast

Advertisements
Track Severe Weather on mobile